Time;durP1;ratioP1;P1;durP2;ratioP2;P2;SDS_P1;SDS_P2;PMS_P1;PMS_P2;Temp;Humidity;BMP_temperature;BMP_pressure;BME280_temperature;BME280_humidity;BME280_pressure;Samples;Min_cycle;Max_cycle;Signal;HPM_P1;HPM_P2
2022/07/08 03:43:33;;;;;;;2.50;2.30;;;17.20;99.90;;;;;;4902266;29;20055;-78
2022/07/08 03:46:01;;;;;;;3.20;2.90;;;17.30;99.90;;;;;;4885191;29;20470;-79
2022/07/08 03:48:27;;;;;;;3.22;2.70;;;17.40;99.90;;;;;;4900711;29;20048;-78
2022/07/08 03:50:55;;;;;;;2.88;2.67;;;17.40;99.90;;;;;;4894678;29;20374;-79
2022/07/08 03:53:21;;;;;;;2.60;2.40;;;17.50;99.90;;;;;;4907656;29;20035;-79
2022/07/08 03:55:49;;;;;;;2.65;2.45;;;17.60;99.90;;;;;;4887148;29;20044;-78
2022/07/08 03:58:20;;;;;;;2.88;2.67;;;17.60;99.90;;;;;;4907112;29;20059;-78
2022/07/08 04:00:49;;;;;;;2.85;2.50;;;17.80;99.90;;;;;;4905052;29;20031;-79
2022/07/08 04:03:16;;;;;;;2.65;2.45;;;17.90;99.90;;;;;;4898239;29;20024;-78
2022/07/08 04:05:43;;;;;;;2.30;2.10;;;18.00;99.90;;;;;;4889440;29;20100;-78
2022/07/08 04:08:08;;;;;;;2.53;2.17;;;18.10;99.90;;;;;;4903285;29;20029;-78
2022/07/08 04:10:36;;;;;;;1.98;1.88;;;18.20;99.90;;;;;;4905196;29;20024;-79
2022/07/08 04:13:03;;;;;;;2.30;2.10;;;18.20;99.90;;;;;;4910834;29;20024;-79
2022/07/08 04:15:29;;;;;;;2.63;2.20;;;18.20;99.90;;;;;;4892922;29;20032;-79
2022/07/08 04:18:00;;;;;;;2.40;2.20;;;18.20;99.90;;;;;;4907077;29;20024;-79
2022/07/08 04:20:26;;;;;;;2.20;2.00;;;18.30;99.90;;;;;;4890970;29;20032;-79
2022/07/08 04:22:52;;;;;;;1.67;1.58;;;18.30;99.90;;;;;;4906652;29;20020;-79
2022/07/08 04:25:22;;;;;;;1.50;1.40;;;18.40;99.90;;;;;;4891043;29;20327;-79
2022/07/08 04:27:51;;;;;;;1.80;1.70;;;18.50;99.90;;;;;;4896010;29;20039;-79
2022/07/08 04:30:18;;;;;;;2.47;1.90;;;18.60;99.90;;;;;;4907057;29;20047;-79
2022/07/08 04:32:44;;;;;;;1.75;1.65;;;18.60;99.90;;;;;;4886082;29;20028;-79
2022/07/08 04:35:12;;;;;;;3.08;1.45;;;18.70;99.90;;;;;;4904731;29;20028;-75
2022/07/08 04:37:40;;;;;;;5.60;1.50;;;18.60;99.90;;;;;;4881986;29;20028;-76
2022/07/08 04:40:07;;;;;;;1.85;1.38;;;18.70;99.90;;;;;;4898972;29;20058;-75
2022/07/08 04:42:32;;;;;;;;;;;18.70;99.90;;;;;;4907045;29;20036;-76
2022/07/08 04:44:58;;;;;;;1.55;1.45;;;18.70;99.90;;;;;;4885694;29;19918;-75
2022/07/08 04:47:31;;;;;;;1.40;1.25;;;18.80;99.90;;;;;;4889195;29;20028;-75
2022/07/08 04:49:57;;;;;;;3.20;1.13;;;18.70;99.90;;;;;;4903094;29;20024;-76
2022/07/08 04:52:24;;;;;;;0.95;0.95;;;18.70;99.90;;;;;;4887707;29;21237;-75
2022/07/08 04:54:51;;;;;;;2.60;1.00;;;18.70;99.90;;;;;;4903558;29;20191;-75
2022/07/08 04:57:24;;;;;;;0.90;0.90;;;18.80;99.90;;;;;;4883871;29;20028;-75
2022/07/08 04:59:50;;;;;;;1.00;1.00;;;18.80;99.90;;;;;;4899271;29;20166;-75
2022/07/08 05:02:21;;;;;;;1.02;0.80;;;18.70;99.90;;;;;;4899863;29;20124;-75
2022/07/08 05:04:47;;;;;;;0.82;0.75;;;18.70;99.90;;;;;;4897142;29;20032;-76
2022/07/08 05:07:20;;;;;;;1.23;0.55;;;18.60;99.90;;;;;;4885204;29;20798;-75
2022/07/08 05:09:45;;;;;;;0.93;0.73;;;18.50;99.90;;;;;;4894454;29;20577;-75
2022/07/08 05:12:14;;;;;;;1.37;0.40;;;18.50;99.90;;;;;;4895707;29;20104;-75
2022/07/08 05:14:40;;;;;;;0.52;0.43;;;18.40;99.90;;;;;;4891620;29;20336;-75
2022/07/08 05:17:25;;;;;;;0.38;0.20;;;18.40;99.90;;;;;;4882257;29;20028;-77
2022/07/08 05:19:52;;;;;;;1.63;0.57;;;18.40;99.90;;;;;;4899261;29;20458;-78
2022/07/08 05:22:21;;;;;;;0.30;0.30;;;18.40;99.90;;;;;;4886987;29;20437;-80
2022/07/08 05:24:54;;;;;;;0.28;0.20;;;18.20;99.90;;;;;;4902016;29;20374;-79
2022/07/08 05:27:24;;;;;;;0.30;0.30;;;18.20;99.90;;;;;;4902171;29;20799;-77
2022/07/08 05:29:50;;;;;;;0.75;0.20;;;18.10;99.90;;;;;;4898682;29;20060;-79
2022/07/08 05:32:17;;;;;;;0.30;0.30;;;18.10;99.90;;;;;;4883422;29;20027;-77
2022/07/08 05:34:51;;;;;;;0.20;0.10;;;18.00;99.90;;;;;;4885529;29;20390;-77
2022/07/08 05:37:21;;;;;;;0.43;0.35;;;18.10;99.90;;;;;;4899160;29;20099;-77
2022/07/08 05:39:46;;;;;;;0.50;0.40;;;18.10;99.90;;;;;;4881500;29;20110;-77
2022/07/08 05:42:21;;;;;;;0.60;0.40;;;18.20;99.90;;;;;;4889792;29;20168;-77
2022/07/08 05:44:47;;;;;;;0.65;0.50;;;18.20;99.90;;;;;;4883405;29;20441;-77
2022/07/08 05:47:16;;;;;;;0.55;0.55;;;18.10;99.90;;;;;;4903098;29;20020;-78
2022/07/08 05:49:46;;;;;;;0.63;0.50;;;18.00;99.90;;;;;;4901220;29;20032;-76
2022/07/08 05:52:18;;;;;;;1.30;0.70;;;18.00;99.90;;;;;;4902478;29;20069;-77
2022/07/08 05:54:45;;;;;;;1.80;0.75;;;18.00;99.90;;;;;;4902291;29;20020;-78
2022/07/08 05:57:13;;;;;;;1.02;0.70;;;17.90;99.90;;;;;;4885477;29;20748;-77
2022/07/08 05:59:45;;;;;;;1.70;0.70;;;17.80;99.90;;;;;;4901401;29;20039;-77
2022/07/08 06:02:13;;;;;;;2.03;0.70;;;17.80;99.90;;;;;;4898338;29;20056;-77
2022/07/08 06:04:40;;;;;;;1.65;0.60;;;17.90;99.90;;;;;;4888534;29;20036;-78
2022/07/08 06:07:09;;;;;;;1.08;0.80;;;17.90;99.90;;;;;;4884030;29;20016;-78
2022/07/08 06:09:40;;;;;;;1.73;1.10;;;17.90;99.80;;;;;;4885119;29;20030;-80
2022/07/08 06:12:07;;;;;;;2.28;0.90;;;18.10;99.50;;;;;;4886550;29;20107;-78
2022/07/08 06:14:35;;;;;;;1.27;0.80;;;18.10;99.20;;;;;;4904375;29;20099;-77
2022/07/08 06:17:03;;;;;;;0.95;0.90;;;18.20;99.10;;;;;;4882960;29;20039;-78
2022/07/08 06:19:32;;;;;;;1.42;1.13;;;18.40;98.70;;;;;;4880001;29;20071;-77
2022/07/08 06:22:00;;;;;;;1.13;0.85;;;18.40;98.50;;;;;;4900549;29;20024;-78
2022/07/08 06:24:26;;;;;;;2.92;1.17;;;18.50;98.20;;;;;;4884284;29;20020;-78
2022/07/08 06:26:52;;;;;;;1.75;1.13;;;18.50;98.00;;;;;;4877671;29;20020;-77
2022/07/08 06:29:19;;;;;;;3.47;1.20;;;18.50;97.90;;;;;;4893581;29;20031;-78
2022/07/08 06:31:52;;;;;;;2.47;1.00;;;18.40;97.70;;;;;;4896632;29;20020;-79
2022/07/08 06:34:20;;;;;;;3.17;1.42;;;18.40;97.90;;;;;;4898116;29;20024;-81
2022/07/08 06:36:49;;;;;;;2.75;1.60;;;18.40;97.80;;;;;;4898014;29;20381;-79
2022/07/08 06:39:16;;;;;;;2.35;1.20;;;18.40;97.90;;;;;;4884886;29;20051;-79
2022/07/08 06:41:44;;;;;;;3.75;1.73;;;18.50;97.40;;;;;;4898338;29;20066;-78
2022/07/08 06:44:11;;;;;;;1.85;1.60;;;18.50;97.10;;;;;;4895702;29;20373;-78
2022/07/08 06:46:39;;;;;;;1.25;1.15;;;18.60;97.20;;;;;;4888047;29;21504;-79
2022/07/08 06:49:05;;;;;;;4.00;1.30;;;18.50;97.20;;;;;;4896590;29;20374;-79
2022/07/08 06:51:35;;;;;;;3.57;1.60;;;18.50;97.30;;;;;;4899373;29;20024;-79
2022/07/08 06:56:48;;;;;;;3.15;1.80;;;18.20;98.10;;;;;;4903802;29;20054;-79
2022/07/08 06:59:21;;;;;;;4.47;1.38;;;18.20;98.30;;;;;;4900862;29;20035;-79
2022/07/08 07:01:52;;;;;;;3.22;1.40;;;18.20;98.40;;;;;;4891008;29;20765;-79
2022/07/08 07:04:23;;;;;;;3.13;1.50;;;18.30;98.70;;;;;;4887680;29;20032;-79
2022/07/08 07:06:52;;;;;;;2.95;1.50;;;18.20;98.80;;;;;;4893899;29;20735;-79
2022/07/08 07:09:28;;;;;;;6.43;1.88;;;18.20;99.30;;;;;;4899017;29;20032;-76
2022/07/08 07:11:58;;;;;;;3.15;1.90;;;18.30;99.30;;;;;;4895362;29;20032;-76
2022/07/08 07:14:29;;;;;;;3.05;2.20;;;18.40;98.90;;;;;;4879602;29;20043;-77
2022/07/08 07:17:00;;;;;;;4.15;2.10;;;18.60;98.60;;;;;;4885081;29;20502;-77
2022/07/08 07:19:26;;;;;;;9.15;3.22;;;18.70;98.30;;;;;;4896222;29;20025;-77
2022/07/08 07:21:52;;;;;;;;;;;18.80;98.00;;;;;;4884275;29;20047;-77
2022/07/08 07:24:26;;;;;;;6.22;2.40;;;18.90;97.60;;;;;;4900989;29;19969;-77
2022/07/08 07:26:55;;;;;;;3.53;2.58;;;19.10;97.20;;;;;;4900231;29;20024;-80
2022/07/08 07:29:23;;;;;;;4.55;2.40;;;19.00;97.10;;;;;;4888369;29;20031;-80
2022/07/08 07:31:49;;;;;;;3.08;2.35;;;19.20;97.10;;;;;;4887233;29;20040;-77
2022/07/08 07:34:17;;;;;;;4.18;3.30;;;19.30;96.70;;;;;;4901563;29;20058;-78
2022/07/08 07:36:48;;;;;;;3.85;2.42;;;19.40;96.50;;;;;;4903297;29;20024;-78
2022/07/08 07:39:25;;;;;;;4.38;2.65;;;19.70;96.00;;;;;;4904998;29;20039;-78
2022/07/08 07:41:51;;;;;;;;;;;19.90;95.60;;;;;;4901718;29;20708;-79
2022/07/08 07:44:17;;;;;;;3.47;2.28;;;20.10;95.20;;;;;;4894313;29;19946;-79
2022/07/08 07:46:43;;;;;;;5.43;2.83;;;20.30;95.00;;;;;;4897433;29;20028;-79
2022/07/08 07:49:13;;;;;;;6.40;2.38;;;20.50;94.50;;;;;;4883805;29;20478;-79
2022/07/08 07:51:41;;;;;;;5.40;2.00;;;20.90;93.80;;;;;;4891217;29;20163;-79
2022/07/08 07:54:07;;;;;;;3.75;2.35;;;21.40;93.20;;;;;;4895898;29;20051;-79
2022/07/08 07:56:33;;;;;;;5.45;2.10;;;21.80;92.10;;;;;;4887710;29;21525;-80
2022/07/08 07:59:07;;;;;;;5.13;1.73;;;21.80;91.60;;;;;;4887700;29;20036;-79
2022/07/08 08:01:42;;;;;;;3.90;2.05;;;21.80;91.30;;;;;;4888653;29;20478;-79
2022/07/08 08:04:12;;;;;;;4.97;2.05;;;21.60;91.40;;;;;;4901591;29;20898;-79
2022/07/08 08:06:42;;;;;;;2.65;2.22;;;21.90;91.00;;;;;;4884414;29;20914;-80
2022/07/08 08:09:09;;;;;;;4.35;1.95;;;21.70;90.90;;;;;;4890778;29;20250;-80
2022/07/08 08:11:36;;;;;;;3.05;2.00;;;21.30;91.40;;;;;;4903787;29;20485;-80
2022/07/08 08:14:06;;;;;;;4.85;2.08;;;21.40;91.70;;;;;;4892652;29;20051;-79
2022/07/08 08:16:34;;;;;;;2.60;1.73;;;21.90;91.10;;;;;;4905243;29;20119;-79
2022/07/08 08:19:12;;;;;;;5.50;2.40;;;22.30;90.70;;;;;;4898732;29;20427;-80
2022/07/08 08:21:39;;;;;;;3.72;1.88;;;22.20;90.50;;;;;;4891443;29;20035;-80
2022/07/08 08:24:05;;;;;;;6.75;2.40;;;22.10;90.70;;;;;;4889879;29;20039;-69
2022/07/08 08:26:31;;;;;;;3.55;2.40;;;22.00;91.30;;;;;;4900759;29;20037;-68
2022/07/08 08:29:05;;;;;;;4.53;2.63;;;21.80;91.30;;;;;;4904168;29;20036;-77
2022/07/08 08:31:30;;;;;;;3.90;2.33;;;21.40;91.70;;;;;;4881080;29;20176;-71
2022/07/08 08:33:57;;;;;;;4.03;2.42;;;21.30;92.10;;;;;;4901910;29;20529;-76
2022/07/08 08:36:29;;;;;;;2.67;1.80;;;21.10;92.00;;;;;;4901377;29;20386;-77
2022/07/08 08:38:56;;;;;;;4.25;2.10;;;21.10;92.30;;;;;;4901856;29;20035;-77
2022/07/08 08:41:33;;;;;;;3.30;1.77;;;21.50;91.90;;;;;;4898913;29;20036;-75
2022/07/08 08:44:04;;;;;;;4.90;1.95;;;22.00;92.30;;;;;;4886323;29;20032;-77
2022/07/08 08:46:32;;;;;;;3.28;1.63;;;22.40;91.50;;;;;;4884242;29;20027;-76
2022/07/08 08:49:00;;;;;;;2.22;1.92;;;22.40;91.30;;;;;;4900281;29;20103;-75
2022/07/08 08:51:30;;;;;;;2.50;1.70;;;22.60;91.70;;;;;;4901821;29;20111;-73
2022/07/08 08:53:58;;;;;;;4.07;2.20;;;23.00;91.60;;;;;;4884050;29;20087;-74
2022/07/08 08:56:26;;;;;;;3.45;1.90;;;23.10;91.70;;;;;;4881744;29;20020;-74
2022/07/08 08:58:59;;;;;;;2.72;1.65;;;22.80;91.60;;;;;;4901781;29;20020;-74
2022/07/08 09:01:25;;;;;;;4.55;2.30;;;22.40;92.20;;;;;;4895842;29;20036;-74
2022/07/08 09:03:51;;;;;;;2.63;1.77;;;21.80;92.10;;;;;;4902485;29;20043;-78
2022/07/08 09:06:18;;;;;;;3.67;2.53;;;21.20;92.90;;;;;;4894038;29;20128;-77
2022/07/08 09:08:44;;;;;;;5.57;2.70;;;20.70;93.20;;;;;;4898830;29;20431;-77
2022/07/08 09:11:10;;;;;;;3.38;2.50;;;20.50;94.00;;;;;;4900573;29;20029;-80
2022/07/08 09:13:37;;;;;;;3.40;2.60;;;20.30;94.00;;;;;;4901999;29;20051;-78
2022/07/08 09:16:04;;;;;;;5.95;3.67;;;20.10;94.30;;;;;;4904683;29;20429;-78
2022/07/08 09:18:35;;;;;;;5.45;3.33;;;19.90;94.60;;;;;;4880910;29;20032;-79
2022/07/08 09:21:04;;;;;;;7.10;3.10;;;19.60;94.60;;;;;;4882058;29;21444;-78
2022/07/08 09:23:36;;;;;;;5.00;3.15;;;19.40;95.00;;;;;;4882326;29;20032;-77
2022/07/08 09:26:08;;;;;;;5.90;3.22;;;19.30;95.90;;;;;;4883708;29;20041;-78
2022/07/08 09:28:37;;;;;;;5.10;3.20;;;19.20;96.50;;;;;;4894370;29;20055;-78
2022/07/08 09:31:09;;;;;;;5.40;3.47;;;19.20;96.00;;;;;;4885048;29;20056;-78
2022/07/08 09:33:36;;;;;;;5.63;3.25;;;19.30;95.60;;;;;;4900115;29;20080;-77
2022/07/08 09:36:07;;;;;;;4.72;3.15;;;19.30;95.50;;;;;;4882368;29;20051;-78
2022/07/08 09:38:37;;;;;;;7.72;3.10;;;19.40;95.20;;;;;;4902185;29;20126;-78
2022/07/08 09:41:15;;;;;;;6.05;3.38;;;19.40;95.30;;;;;;4885151;29;20453;-78
2022/07/08 09:43:56;;;;;;;4.45;3.30;;;19.30;95.30;;;;;;4883222;29;20100;-78
2022/07/08 09:46:36;;;;;;;5.75;3.15;;;19.30;95.10;;;;;;4904559;29;20023;-78
2022/07/08 09:49:07;;;;;;;6.35;3.53;;;19.30;95.40;;;;;;4900956;29;20031;-78
2022/07/08 09:51:41;;;;;;;3.47;2.97;;;19.20;95.20;;;;;;4883576;29;20048;-78
2022/07/08 09:54:10;;;;;;;6.63;3.20;;;19.10;95.50;;;;;;4896353;29;20036;-78
2022/07/08 09:56:38;;;;;;;7.13;3.58;;;19.10;95.60;;;;;;4901577;29;20037;-78
2022/07/08 09:59:05;;;;;;;5.38;3.10;;;18.90;95.60;;;;;;4902679;29;20048;-79
2022/07/08 10:01:33;;;;;;;6.05;3.60;;;19.00;95.20;;;;;;4882305;29;20130;-78
2022/07/08 10:04:02;;;;;;;6.03;3.38;;;19.10;95.00;;;;;;4886859;29;20032;-78
2022/07/08 10:06:31;;;;;;;6.18;3.67;;;19.00;95.10;;;;;;4894047;29;20123;-77
2022/07/08 10:08:57;;;;;;;4.32;3.05;;;19.00;95.20;;;;;;4884744;29;20111;-77
2022/07/08 10:11:26;;;;;;;8.50;3.20;;;19.10;95.00;;;;;;4894288;29;20582;-77
2022/07/08 10:13:53;;;;;;;4.38;3.28;;;19.20;94.90;;;;;;4900911;29;20259;-78
2022/07/08 10:16:19;;;;;;;4.93;3.28;;;19.30;95.00;;;;;;4882602;29;20161;-78
2022/07/08 10:18:52;;;;;;;5.85;3.30;;;19.30;94.50;;;;;;4879054;29;20140;-78
2022/07/08 10:21:24;;;;;;;5.53;2.95;;;19.40;94.70;;;;;;4893380;29;20020;-78
2022/07/08 10:23:58;;;;;;;5.65;3.22;;;19.60;94.50;;;;;;4899829;29;20766;-78
2022/07/08 10:26:36;;;;;;;5.38;2.80;;;20.60;93.20;;;;;;4899316;29;20016;-78
2022/07/08 10:29:11;;;;;;;3.35;2.42;;;21.70;92.00;;;;;;4883262;29;20035;-77
2022/07/08 10:31:51;;;;;;;5.95;2.90;;;22.60;90.10;;;;;;4880951;29;20024;-78
2022/07/08 10:35:05;;;;;;;4.82;2.95;;;22.60;88.90;;;;;;4894752;29;20016;-77
2022/07/08 10:37:50;;;;;;;3.38;2.80;;;22.50;88.80;;;;;;4882944;29;20030;-77
2022/07/08 10:40:37;;;;;;;3.92;2.72;;;21.90;89.50;;;;;;4895608;29;20024;-78
2022/07/08 10:43:18;;;;;;;7.38;2.95;;;21.40;90.20;;;;;;4897676;29;20549;-78
2022/07/08 10:46:16;;;;;;;8.55;3.10;;;21.10;90.60;;;;;;4876460;29;20032;-78
2022/07/08 10:48:47;;;;;;;8.10;3.45;;;21.00;91.00;;;;;;4878801;29;20016;-78
2022/07/08 10:51:23;;;;;;;5.13;3.53;;;20.70;91.10;;;;;;4881688;29;20012;-65
2022/07/08 10:53:52;;;;;;;3.72;3.08;;;20.80;91.30;;;;;;4892240;29;20017;-66
2022/07/08 10:56:49;;;;;;;7.63;2.88;;;20.90;91.30;;;;;;4877685;29;20363;-66
2022/07/08 10:59:23;;;;;;;5.80;3.25;;;20.90;91.30;;;;;;4877454;29;20024;-66
2022/07/08 11:01:52;;;;;;;4.85;2.80;;;20.90;91.30;;;;;;4896573;29;20478;-66
2022/07/08 11:04:34;;;;;;;6.40;3.30;;;20.90;91.30;;;;;;4890303;29;20032;-66
2022/07/08 11:07:18;;;;;;;4.80;3.10;;;20.80;91.10;;;;;;4897924;29;20020;-66
2022/07/08 11:09:49;;;;;;;4.95;3.53;;;20.50;91.40;;;;;;4894744;29;20417;-66
2022/07/08 11:12:16;;;;;;;6.97;3.38;;;20.40;91.70;;;;;;4880346;29;20035;-66
2022/07/08 11:14:47;;;;;;;4.05;3.00;;;20.50;91.60;;;;;;4896054;29;20103;-66
2022/07/08 11:17:26;;;;;;;8.75;3.60;;;20.50;91.50;;;;;;4895872;29;20470;-66
2022/07/08 11:19:53;;;;;;;4.97;2.90;;;20.60;91.40;;;;;;4891977;29;20029;-66
2022/07/08 11:22:21;;;;;;;4.85;3.08;;;20.80;91.10;;;;;;4879978;29;20066;-66
2022/07/08 11:24:48;;;;;;;7.88;3.50;;;21.10;91.10;;;;;;4892986;29;20028;-66
2022/07/08 11:27:15;;;;;;;5.45;2.70;;;21.40;90.50;;;;;;4896910;29;20036;-66
2022/07/08 11:29:51;;;;;;;3.88;2.70;;;21.70;90.10;;;;;;4896350;29;20028;-67
2022/07/08 11:32:19;;;;;;;6.67;3.03;;;22.00;89.20;;;;;;4891577;29;20027;-66
2022/07/08 11:34:49;;;;;;;5.82;2.95;;;22.10;88.80;;;;;;4881899;29;20280;-66
2022/07/08 11:37:15;;;;;;;5.20;2.75;;;22.20;88.40;;;;;;4898191;29;20028;-66
2022/07/08 11:39:44;;;;;;;;;;;22.20;88.30;;;;;;4893112;29;20036;-66
2022/07/08 11:42:10;;;;;;;5.35;3.03;;;22.20;88.20;;;;;;4891517;29;19923;-66
2022/07/08 11:44:37;;;;;;;8.63;3.15;;;22.20;88.00;;;;;;4898132;29;20032;-67
2022/07/08 11:47:02;;;;;;;;;;;21.90;88.70;;;;;;4878648;29;20362;-66
2022/07/08 11:49:28;;;;;;;4.03;2.40;;;21.90;88.60;;;;;;4892460;29;19907;-66
2022/07/08 11:51:55;;;;;;;5.75;3.08;;;21.80;89.10;;;;;;4896999;29;20040;-69
2022/07/08 11:54:24;;;;;;;2.97;2.70;;;21.60;89.10;;;;;;4892199;29;20039;-67
2022/07/08 11:56:54;;;;;;;2.92;2.25;;;21.50;89.80;;;;;;4885032;29;20019;-66
2022/07/08 11:59:22;;;;;;;3.80;2.60;;;21.40;89.70;;;;;;4894721;29;20024;-66
2022/07/08 12:01:56;;;;;;;5.65;2.50;;;21.30;90.00;;;;;;4894102;29;20135;-68
2022/07/08 12:04:26;;;;;;;5.72;2.42;;;21.30;90.00;;;;;;4903730;29;20092;-80
2022/07/08 12:07:01;;;;;;;4.13;2.17;;;21.20;90.00;;;;;;4900950;29;20048;-78
2022/07/08 12:09:30;;;;;;;3.90;2.05;;;21.10;90.00;;;;;;4896206;29;20103;-79
2022/07/08 12:12:06;;;;;;;3.42;2.15;;;21.00;90.20;;;;;;4881466;29;20645;-79
2022/07/08 12:14:33;;;;;;;4.35;1.98;;;21.00;90.20;;;;;;4906749;29;20616;-80
2022/07/08 12:16:59;;;;;;;4.53;2.00;;;21.00;90.20;;;;;;4887409;29;20032;-80
2022/07/08 12:19:32;;;;;;;3.55;2.22;;;21.00;90.40;;;;;;4887131;29;20035;-79
2022/07/08 12:22:02;;;;;;;2.80;2.03;;;21.00;90.20;;;;;;4887280;29;20032;-78
2022/07/08 12:24:34;;;;;;;4.28;2.25;;;21.00;90.30;;;;;;4898284;29;20544;-78
2022/07/08 12:27:02;;;;;;;1.70;1.60;;;21.10;90.20;;;;;;4900533;29;20024;-77
2022/07/08 12:29:37;;;;;;;2.05;1.67;;;21.10;90.20;;;;;;4884254;29;20020;-78
2022/07/08 12:32:08;;;;;;;2.00;1.80;;;21.20;90.10;;;;;;4886723;29;20035;-79
2022/07/08 12:34:50;;;;;;;3.63;2.20;;;21.20;90.00;;;;;;4889073;29;20035;-79
2022/07/08 12:37:18;;;;;;;5.60;2.70;;;21.40;89.80;;;;;;4884092;29;20686;-78
2022/07/08 12:40:16;;;;;;;4.32;2.38;;;21.50;89.40;;;;;;4903708;29;20729;-79
2022/07/08 12:42:43;;;;;;;4.70;1.83;;;21.60;88.80;;;;;;4881248;29;20410;-79
2022/07/08 12:45:16;;;;;;;2.88;2.08;;;21.90;88.60;;;;;;4906186;29;20127;-80
2022/07/08 12:47:49;;;;;;;4.93;2.00;;;22.00;88.10;;;;;;4887644;29;20055;-79
2022/07/08 12:50:20;;;;;;;2.90;1.88;;;22.10;87.80;;;;;;4886626;29;20048;-80
2022/07/08 12:52:47;;;;;;;2.83;1.80;;;22.20;87.40;;;;;;4892453;29;20054;-79
2022/07/08 12:55:12;;;;;;;4.28;2.10;;;22.00;87.40;;;;;;5164422;23;20045;-81
2022/07/08 12:57:56;;;;;;;2.92;1.90;;;21.80;87.80;;;;;;4897218;29;20025;-82
2022/07/08 13:00:30;;;;;;;15.23;2.55;;;21.80;88.00;;;;;;4888481;29;20032;-79
2022/07/08 13:02:57;;;;;;;1.98;1.85;;;22.00;87.60;;;;;;4905950;29;20033;-81
2022/07/08 13:05:24;;;;;;;2.95;1.80;;;22.30;87.30;;;;;;4897067;29;20017;-81
2022/07/08 13:08:00;;;;;;;2.28;1.63;;;22.60;87.40;;;;;;4894484;29;20025;-81
2022/07/08 13:10:32;;;;;;;2.17;1.83;;;22.70;86.10;;;;;;4897244;29;20531;-80
2022/07/08 13:13:24;;;;;;;3.15;1.75;;;22.70;85.90;;;;;;4891033;29;20032;-81
2022/07/08 13:15:50;;;;;;;2.60;1.85;;;22.60;86.20;;;;;;4900921;29;20112;-80
2022/07/08 13:18:16;;;;;;;2.65;2.10;;;22.60;86.80;;;;;;4875758;29;20059;-80
2022/07/08 13:20:47;;;;;;;2.72;2.00;;;22.40;86.50;;;;;;4898204;29;20102;-80
2022/07/08 13:23:14;;;;;;;4.22;2.00;;;22.20;87.60;;;;;;4888675;29;20475;-80
2022/07/08 13:25:40;;;;;;;4.55;2.03;;;22.10;88.40;;;;;;4874745;29;20033;-79
2022/07/08 13:28:07;;;;;;;2.72;1.77;;;22.00;88.80;;;;;;4890713;29;20156;-81
2022/07/08 13:30:35;;;;;;;2.90;1.88;;;21.80;89.10;;;;;;4897201;29;20092;-81
2022/07/08 13:35:36;;;;;;;2.35;1.77;;;21.70;90.10;;;;;;5716145;23;20063;-80
2022/07/08 13:38:18;;;;;;;2.97;2.10;;;21.70;90.10;;;;;;4900283;29;20012;-80
2022/07/08 13:40:44;;;;;;;3.40;1.98;;;21.70;89.90;;;;;;4903300;29;20032;-79
2022/07/08 13:43:15;;;;;;;2.30;1.83;;;21.70;90.10;;;;;;4905373;29;20032;-79
2022/07/08 13:45:43;;;;;;;5.22;1.70;;;21.60;90.00;;;;;;4896628;29;20043;-78
2022/07/08 13:48:10;;;;;;;3.38;1.83;;;21.40;90.30;;;;;;4890025;29;20062;-79
2022/07/08 13:50:41;;;;;;;5.88;2.00;;;21.40;90.50;;;;;;4901603;29;20111;-79
2022/07/08 13:53:11;;;;;;;2.85;2.17;;;21.30;90.20;;;;;;4880348;29;20831;-79
2022/07/08 13:55:44;;;;;;;3.38;2.28;;;21.10;90.20;;;;;;4886296;29;20032;-79
2022/07/08 13:58:14;;;;;;;2.42;1.92;;;21.30;90.10;;;;;;4882923;29;20032;-79
2022/07/08 14:00:45;;;;;;;3.92;2.28;;;21.40;90.00;;;;;;4901242;29;20064;-80
2022/07/08 14:03:12;;;;;;;3.25;2.38;;;21.60;89.10;;;;;;4902401;29;20032;-77
2022/07/08 14:05:40;;;;;;;3.50;2.38;;;21.70;88.60;;;;;;4894808;29;20042;-78
2022/07/08 14:08:07;;;;;;;3.83;2.58;;;21.90;87.80;;;;;;4902082;29;20032;-78
2022/07/08 14:10:34;;;;;;;3.67;2.50;;;21.90;87.70;;;;;;4876993;29;20055;-78
2022/07/08 14:13:00;;;;;;;4.28;2.38;;;21.90;87.40;;;;;;4886292;29;20423;-78
2022/07/08 14:15:26;;;;;;;2.50;2.30;;;21.90;87.50;;;;;;4887087;29;20024;-78
2022/07/08 14:17:54;;;;;;;4.47;2.45;;;22.00;87.60;;;;;;4881179;29;20063;-78
2022/07/08 14:20:20;;;;;;;4.13;2.63;;;22.00;87.70;;;;;;4895135;29;20103;-78
2022/07/08 14:22:46;;;;;;;5.05;2.55;;;21.90;87.90;;;;;;4897068;29;20111;-78
2022/07/08 14:25:18;;;;;;;3.70;2.10;;;22.00;87.70;;;;;;4883516;29;20114;-76
2022/07/08 14:27:45;;;;;;;3.70;2.55;;;22.10;87.90;;;;;;4899167;29;20020;-77
2022/07/08 14:30:15;;;;;;;3.88;2.70;;;22.10;87.40;;;;;;4905696;29;20016;-77
2022/07/08 14:32:41;;;;;;;4.63;2.67;;;22.20;87.20;;;;;;4899288;29;20028;-77
2022/07/08 14:35:07;;;;;;;6.75;2.30;;;22.10;86.90;;;;;;4903687;29;20096;-78
2022/07/08 14:37:45;;;;;;;;;;;22.10;87.30;;;;;;4899675;29;20039;-77
2022/07/08 14:40:13;;;;;;;4.55;2.10;;;22.00;87.20;;;;;;4900251;29;19911;-77
2022/07/08 14:42:40;;;;;;;3.53;2.40;;;21.80;87.50;;;;;;4899009;29;20036;-78
2022/07/08 14:45:07;;;;;;;3.92;2.67;;;21.80;87.80;;;;;;4904898;29;20056;-77
2022/07/08 14:47:33;;;;;;;4.78;2.65;;;21.70;88.40;;;;;;4884936;29;20032;-77
2022/07/08 14:50:05;;;;;;;4.63;2.58;;;21.60;88.30;;;;;;4896980;29;20029;-77
2022/07/08 14:52:33;;;;;;;5.07;2.70;;;21.50;88.40;;;;;;4879455;29;20115;-77
2022/07/08 14:55:02;;;;;;;3.10;2.20;;;21.50;88.70;;;;;;4886129;29;20032;-78
2022/07/08 14:57:29;;;;;;;5.85;2.80;;;21.50;88.90;;;;;;4891214;29;20024;-76
2022/07/08 14:59:58;;;;;;;2.92;2.60;;;21.40;89.20;;;;;;4900077;29;20548;-76
2022/07/08 15:02:27;;;;;;;3.60;2.20;;;21.30;89.20;;;;;;4905427;29;20056;-76
2022/07/08 15:04:56;;;;;;;5.43;2.53;;;21.10;89.80;;;;;;4881604;29;20039;-76
2022/07/08 15:07:21;;;;;;;2.20;1.90;;;21.00;89.90;;;;;;4899269;29;20024;-77
2022/07/08 15:09:51;;;;;;;3.80;2.35;;;21.10;90.10;;;;;;4879350;29;20524;-76
2022/07/08 15:12:21;;;;;;;5.65;3.03;;;21.10;90.10;;;;;;4883508;29;20419;-77
2022/07/08 15:14:46;;;;;;;4.10;2.40;;;21.10;89.80;;;;;;4894549;29;20013;-77
2022/07/08 15:17:13;;;;;;;2.97;2.28;;;21.20;89.90;;;;;;4882278;29;20113;-77
2022/07/08 15:19:41;;;;;;;5.60;2.80;;;21.20;89.90;;;;;;4881730;29;20040;-77
2022/07/08 15:22:07;;;;;;;4.88;2.33;;;21.10;89.60;;;;;;4882943;29;20028;-77
2022/07/08 15:24:36;;;;;;;5.13;2.75;;;20.90;90.00;;;;;;4894723;29;20119;-78
2022/07/08 15:27:05;;;;;;;5.72;3.10;;;20.80;90.10;;;;;;4896849;29;20043;-78
2022/07/08 15:29:33;;;;;;;5.82;2.70;;;20.70;90.20;;;;;;4878582;29;20032;-78
2022/07/08 15:32:01;;;;;;;7.65;4.15;;;20.50;90.40;;;;;;4886144;29;20226;-79
2022/07/08 15:34:28;;;;;;;4.65;2.70;;;20.50;90.70;;;;;;4878596;29;20116;-77
2022/07/08 15:36:55;;;;;;;2.90;2.63;;;20.40;90.80;;;;;;4895211;29;20037;-77
2022/07/08 15:39:21;;;;;;;4.95;2.50;;;20.30;90.90;;;;;;4898259;29;20029;-78
2022/07/08 15:41:46;;;;;;;4.47;2.83;;;20.30;90.90;;;;;;4876772;29;20025;-78
2022/07/08 15:44:20;;;;;;;9.10;3.35;;;20.30;90.90;;;;;;4875152;29;20073;-77
2022/07/08 15:46:50;;;;;;;6.90;3.60;;;20.30;91.10;;;;;;4888966;29;20642;-77
2022/07/08 15:49:27;;;;;;;6.82;3.25;;;20.20;91.00;;;;;;4899120;29;20024;-77
2022/07/08 15:51:54;;;;;;;5.07;2.70;;;20.10;91.10;;;;;;4880632;29;20051;-78
2022/07/08 15:54:28;;;;;;;3.13;2.60;;;20.10;91.10;;;;;;4904019;29;20043;-77
2022/07/08 15:56:54;;;;;;;5.90;3.33;;;20.00;91.30;;;;;;4884571;29;20028;-77
2022/07/08 15:59:21;;;;;;;3.63;2.85;;;20.00;91.30;;;;;;4886216;29;20032;-78
2022/07/08 16:01:52;;;;;;;5.70;2.97;;;20.10;91.40;;;;;;4897637;29;20100;-77
2022/07/08 16:04:22;;;;;;;5.55;2.45;;;20.00;91.50;;;;;;4891539;29;20084;-77
2022/07/08 16:06:51;;;;;;;3.30;2.35;;;20.00;91.50;;;;;;4894589;29;20547;-77
2022/07/08 16:09:26;;;;;;;4.15;2.72;;;19.90;91.60;;;;;;4884848;29;20028;-78
2022/07/08 16:11:54;;;;;;;2.50;2.00;;;19.90;91.70;;;;;;4896086;29;20031;-78
2022/07/08 16:14:20;;;;;;;3.88;2.30;;;19.90;91.50;;;;;;4896902;29;20024;-70
2022/07/08 16:16:49;;;;;;;3.83;2.40;;;19.90;92.00;;;;;;4895623;29;20590;-69
2022/07/08 16:19:15;;;;;;;3.75;3.03;;;20.10;91.70;;;;;;4885933;29;20017;-80
2022/07/08 16:21:43;;;;;;;6.07;2.65;;;20.20;91.40;;;;;;4896661;29;20352;-77
2022/07/08 16:24:09;;;;;;;5.97;2.15;;;20.40;91.30;;;;;;4885027;29;20039;-77
2022/07/08 16:26:36;;;;;;;;;;;20.50;91.10;;;;;;4883319;29;20036;-78
2022/07/08 16:29:03;;;;;;;4.32;2.00;;;20.60;90.90;;;;;;4897444;29;19911;-77
2022/07/08 16:31:31;;;;;;;3.47;1.80;;;20.70;91.10;;;;;;4897339;29;20028;-78
2022/07/08 16:33:56;;;;;;;4.75;2.50;;;20.60;90.70;;;;;;4885753;29;20028;-78
2022/07/08 16:36:26;;;;;;;3.72;2.00;;;20.70;90.50;;;;;;4887030;29;20034;-77
2022/07/08 16:38:53;;;;;;;2.85;1.70;;;20.60;90.60;;;;;;4895702;29;20174;-79
2022/07/08 16:41:19;;;;;;;3.90;2.13;;;20.60;90.70;;;;;;4898635;29;20032;-78
2022/07/08 16:43:53;;;;;;;4.57;2.05;;;20.60;90.70;;;;;;4901681;29;20028;-76
2022/07/08 16:46:19;;;;;;;5.90;1.80;;;20.50;90.50;;;;;;4882562;29;20032;-80
2022/07/08 16:48:52;;;;;;;2.75;2.00;;;20.50;90.40;;;;;;4902340;29;20024;-79